Currently 44°F in Anza, California, USA
44°F
44°F / 38°F
4 mph SE
0.00"
Monday, December 17, 2018 1:48 AM PST

Anza, California Weather Summary
Last 36 Hours

Temperature Winds Hourly Humidity Dewpoint
Time Report Norm Report Norm Max Gusts Precip. Rpt. Norm Rpt. Norm Pressure
1,2Mon 01:48 AM  43.9°F  40°F  4 mph SE  4 mph  9 mph  0.00"  55%  72%  28°F  32°F  N/A
Mon 01:00 AM  39.3°F  40°F  calm  5 mph  4 mph  0.00"  72%  73%  30°F  32°F  N/A
3Mon 12:45 AM  38.2°F  41°F  3 mph SE  5 mph  3 mph  ----  74%  73%  30°F  32°F  N/A
Mon 12:00 AM  43.3°F  41°F  calm  5 mph  6 mph  0.00"  63%  73%  31°F  32°F  N/A
Sun 11:00 PM  41.6°F  41°F  calm  5 mph  7 mph  0.00"  65%  72%  30°F  33°F  N/A
Sun 10:00 PM  41.1°F  42°F  calm  5 mph  6 mph  0.00"  71%  73%  32°F  33°F  N/A
Sun 09:00 PM  42.2°F  42°F  4 mph NE  5 mph  6 mph  0.00"  63%  72%  30°F  33°F  N/A
Sun 08:00 PM  38.8°F  43°F  calm  5 mph  3 mph  0.00"  77%  71%  32°F  34°F  N/A
Sun 07:00 PM  40.4°F  43°F  calm  5 mph  3 mph  0.00"  72%  71%  32°F  34°F  N/A
Sun 06:00 PM  44.3°F  45°F  1 mph NW  5 mph  5 mph  0.00"  64%  68%  33°F  34°F  N/A
Sun 05:00 PM  51.0°F  47°F  calm  6 mph  none  0.00"  51%  64%  33°F  35°F  N/A
Sun 04:00 PM  59.8°F  51°F  calm  7 mph  none  0.00"  32%  57%  29°F  36°F  N/A
Sun 03:00 PM  61.0°F  54°F  calm  9 mph  13 mph  0.00"  29%  53%  27°F  36°F  N/A
Sun 02:00 PM  64.2°F  55°F  7 mph SE  9 mph  14 mph  0.00"  24%  50%  25°F  36°F  N/A
Sun 01:00 PM  67.3°F  55°F  7 mph SE  9 mph  12 mph  0.00"  20%  50%  23°F  36°F  N/A
Sun 12:00 PM  65.4°F  55°F  7 mph S  9 mph  11 mph  0.00"  19%  51%  21°F  36°F  N/A
Sun 11:00 AM  63.6°F  54°F  7 mph S  9 mph  9 mph  0.00"  18%  53%  18°F  36°F  N/A
Sun 10:00 AM  61.4°F  52°F  calm  9 mph  11 mph  0.00"  19%  55%  17°F  35°F  N/A
Sun 09:00 AM  59.3°F  49°F  3 mph SE  8 mph  8 mph  0.00"  28%  60%  24°F  35°F  N/A
Sun 08:00 AM  52.3°F  45°F  calm  5 mph  6 mph  0.00"  41%  66%  29°F  34°F  N/A
Sun 07:00 AM  47.8°F  41°F  4 mph SE  5 mph  8 mph  0.00"  43%  71%  25°F  31°F  N/A
Sun 06:00 AM  33.5°F  41°F  calm  5 mph  none  0.00"  79%  71%  27°F  31°F  N/A
Sun 05:00 AM  33.8°F  41°F  calm  5 mph  none  0.00"  79%  71%  28°F  32°F  N/A
Sun 04:00 AM  34.3°F  41°F  calm  5 mph  none  0.00"  76%  71%  27°F  32°F  N/A
Sun 03:00 AM  36.0°F  41°F  calm  5 mph  1 mph  0.00"  70%  72%  27°F  32°F  N/A
Sun 02:00 AM  42.2°F  41°F  calm  5 mph  7 mph  0.00"  58%  71%  28°F  32°F  N/A
Sun 01:00 AM  35.5°F  41°F  calm  5 mph  none  0.00"  74%  72%  28°F  32°F  N/A
Sun 12:00 AM  36.3°F  41°F  calm  5 mph  4 mph  0.00"  72%  72%  28°F  32°F  N/A
Sat 11:00 PM  36.0°F  41°F  calm  5 mph  1 mph  0.00"  75%  72%  29°F  33°F  N/A
Sat 10:00 PM  37.0°F  42°F  calm  5 mph  none  0.00"  71%  71%  28°F  33°F  N/A
Sat 09:00 PM  41.8°F  43°F  calm  5 mph  7 mph  0.00"  62%  70%  29°F  33°F  N/A
Sat 08:00 PM  46.9°F  43°F  3 mph SE  5 mph  7 mph  0.00"  47%  69%  27°F  34°F  N/A
Sat 07:00 PM  40.8°F  44°F  calm  5 mph  none  0.00"  65%  68%  29°F  34°F  N/A
Sat 06:00 PM  44.3°F  45°F  calm  6 mph  none  0.00"  53%  66%  28°F  34°F  N/A
Sat 05:00 PM  53.3°F  48°F  calm  6 mph  4 mph  0.00"  37%  62%  27°F  35°F  N/A
Sat 04:00 PM  61.0°F  52°F  calm  7 mph  none  0.00"  23%  55%  22°F  36°F  N/A
Sat 03:00 PM  61.5°F  54°F  calm  9 mph  12 mph  0.00"  18%  51%  16°F  36°F  N/A
Sat 02:00 PM  61.4°F  56°F  calm  9 mph  14 mph  0.00"  19%  49%  17°F  36°F  N/A

  1. Current weather data. No green row appears if the current weather data is also the high or low for the current day.
  2. High temperature for the current day.
  3. Low temperature for the current day.

The Anza, California weather pages are a service of WeatherCurrents. The Anza Valley is southwestern Riverside County, east of Temecula and Aguanga, south of Mount San Jacinto and west of Mount Santa Rosa.
Copyright ©Mon Dec 17 01:49:34 PST 2018  WeatherCurrents. All rights reserved. - Submit questions and comments - Privacy Policy

This page automatically refreshes every 10 minutes.